createdAt,value
2017-12-16T00:00:10.477Z,51.30
2017-12-16T00:01:10.491Z,45.20
2017-12-16T00:02:10.515Z,48.20
2017-12-16T00:03:10.613Z,49.20
2017-12-16T00:04:10.528Z,53.60
2017-12-16T00:05:10.541Z,52.60
2017-12-16T00:06:10.551Z,54.80
2017-12-16T00:07:10.564Z,56.50
2017-12-16T00:08:10.573Z,53.50
2017-12-16T00:09:10.587Z,54.40
2017-12-16T00:10:10.598Z,55.70
2017-12-16T00:11:10.610Z,59.70
2017-12-16T00:12:10.623Z,53.30
2017-12-16T00:13:10.634Z,56.40
2017-12-16T00:14:10.646Z,56.20
2017-12-16T00:15:10.660Z,57.70
2017-12-16T00:16:10.668Z,57.40
2017-12-16T00:17:10.680Z,56.60
2017-12-16T00:18:10.692Z,58.60
2017-12-16T00:19:10.703Z,56.40
2017-12-16T00:20:10.721Z,57.30
2017-12-16T00:21:10.727Z,57.60
2017-12-16T00:22:10.743Z,55.10
2017-12-16T00:23:10.751Z,51.70
2017-12-16T00:24:10.763Z,51.40
2017-12-16T00:25:10.778Z,58.80
2017-12-16T00:26:10.798Z,52.20
2017-12-16T00:27:10.802Z,47.70
2017-12-16T00:28:10.811Z,47.00
2017-12-16T00:29:10.825Z,50.10
2017-12-16T00:31:10.850Z,50.60
2017-12-16T00:32:10.908Z,49.40
2017-12-16T00:33:10.871Z,50.70
2017-12-16T00:34:10.882Z,46.30
2017-12-16T00:35:10.892Z,48.70
2017-12-16T00:36:10.906Z,53.60
2017-12-16T00:37:10.919Z,46.70
2017-12-16T00:38:10.929Z,45.70
2017-12-16T00:39:10.945Z,46.80
2017-12-16T00:40:10.961Z,45.00
2017-12-16T00:41:10.966Z,49.30
2017-12-16T00:42:10.983Z,49.80
2017-12-16T00:43:10.988Z,47.30
2017-12-16T00:44:11.000Z,47.80
2017-12-16T00:45:11.011Z,48.10
2017-12-16T00:46:11.023Z,47.00
2017-12-16T00:47:11.034Z,44.30
2017-12-16T00:48:11.045Z,42.50
2017-12-16T00:49:11.056Z,47.10
2017-12-16T00:50:11.075Z,43.80
2017-12-16T00:51:11.082Z,45.40
2017-12-16T00:52:11.096Z,44.90
2017-12-16T00:53:11.106Z,46.20
2017-12-16T00:54:11.119Z,46.60
2017-12-16T00:55:11.131Z,44.40
2017-12-16T00:56:11.144Z,44.00
2017-12-16T00:57:11.159Z,45.10
2017-12-16T00:58:11.167Z,43.70
2017-12-16T00:59:11.177Z,46.30
2017-12-16T01:00:11.188Z,47.60
2017-12-16T01:01:11.201Z,51.10
2017-12-16T01:02:11.213Z,45.70
2017-12-16T01:03:11.223Z,47.80
2017-12-16T01:04:11.235Z,49.30
2017-12-16T01:05:11.247Z,42.70
2017-12-16T01:06:11.258Z,47.00
2017-12-16T01:07:11.275Z,49.50
2017-12-16T01:08:11.284Z,46.20
2017-12-16T01:09:11.294Z,46.50
2017-12-16T01:10:11.303Z,48.30
2017-12-16T01:11:11.316Z,46.80
2017-12-16T01:12:11.327Z,41.60
2017-12-16T01:13:11.391Z,45.20
2017-12-16T01:14:11.350Z,44.10
2017-12-16T01:15:11.363Z,45.70
2017-12-16T01:16:11.373Z,45.70
2017-12-16T01:17:11.385Z,46.70
2017-12-16T01:18:11.404Z,47.40
2017-12-16T01:19:11.415Z,45.40
2017-12-16T01:20:11.435Z,49.00
2017-12-16T01:21:11.434Z,44.80
2017-12-16T01:22:11.447Z,42.40
2017-12-16T01:23:11.457Z,45.00
2017-12-16T01:24:11.466Z,45.20
2017-12-16T01:25:11.482Z,44.40
2017-12-16T01:26:11.490Z,47.80
2017-12-16T01:27:11.501Z,44.90
2017-12-16T01:28:11.514Z,46.80
2017-12-16T01:29:11.525Z,47.70
2017-12-16T01:30:11.537Z,51.60
2017-12-16T01:31:11.552Z,45.20
2017-12-16T01:32:11.561Z,42.80
2017-12-16T01:33:11.574Z,43.50
2017-12-16T01:34:11.586Z,42.20
2017-12-16T01:35:11.601Z,43.50
2017-12-16T01:36:11.609Z,44.20
2017-12-16T01:37:11.622Z,43.20
2017-12-16T01:38:11.634Z,45.30
2017-12-16T01:39:11.643Z,47.30
2017-12-16T01:40:11.661Z,45.20
2017-12-16T01:41:11.670Z,44.80
2017-12-16T01:42:11.682Z,42.70
2017-12-16T01:43:11.691Z,45.40
2017-12-16T01:44:11.705Z,46.30
2017-12-16T01:45:11.718Z,46.00
2017-12-16T01:46:11.733Z,47.20
2017-12-16T01:47:11.741Z,41.40
2017-12-16T01:48:11.757Z,42.80
2017-12-16T01:49:11.765Z,43.40
2017-12-16T01:50:11.779Z,44.60
2017-12-16T01:51:11.790Z,41.70
2017-12-16T01:52:11.799Z,42.00
2017-12-16T01:53:11.811Z,42.90
2017-12-16T01:54:11.828Z,43.60
2017-12-16T01:55:11.834Z,42.90
2017-12-16T01:56:11.847Z,42.60
2017-12-16T01:57:11.858Z,44.70
2017-12-16T01:58:11.870Z,41.20
2017-12-16T01:59:11.883Z,40.40
2017-12-16T02:00:11.895Z,36.30
2017-12-16T02:01:11.907Z,36.30
2017-12-16T02:02:11.915Z,38.40
2017-12-16T02:03:11.930Z,37.80
2017-12-16T02:04:11.938Z,36.30
2017-12-16T02:05:11.951Z,35.50
2017-12-16T02:06:11.962Z,34.00
2017-12-16T02:07:11.973Z,38.50
2017-12-16T02:08:11.986Z,36.70
2017-12-16T02:09:11.998Z,34.40
2017-12-16T02:10:12.012Z,36.40
2017-12-16T02:11:12.019Z,33.20
2017-12-16T02:12:12.034Z,35.30
2017-12-16T02:13:12.046Z,37.00
2017-12-16T02:14:12.056Z,39.50
2017-12-16T02:15:12.071Z,37.00
2017-12-16T02:16:12.078Z,37.40
2017-12-16T02:17:12.094Z,37.60
2017-12-16T02:18:12.101Z,37.90
2017-12-16T02:19:12.113Z,37.80
2017-12-16T02:20:12.126Z,38.00
2017-12-16T02:21:12.136Z,42.70
2017-12-16T02:22:12.155Z,38.80
2017-12-16T02:23:12.163Z,36.70
2017-12-16T02:24:12.173Z,37.60
2017-12-16T02:25:12.182Z,36.30
2017-12-16T02:26:12.195Z,36.00
2017-12-16T02:27:12.206Z,38.50
2017-12-16T02:28:12.219Z,39.40
2017-12-16T02:29:12.234Z,37.20
2017-12-16T02:30:12.247Z,35.40
2017-12-16T02:31:12.255Z,36.70
2017-12-16T02:32:12.267Z,38.20
2017-12-16T02:33:12.273Z,41.40
2017-12-16T02:34:12.293Z,39.00
2017-12-16T02:35:12.308Z,38.80
2017-12-16T02:36:12.309Z,37.90
2017-12-16T02:37:12.321Z,40.10
2017-12-16T02:38:12.346Z,40.10
2017-12-16T02:39:12.346Z,43.50
2017-12-16T02:40:12.358Z,42.90
2017-12-16T02:41:12.367Z,44.20
2017-12-16T02:42:12.379Z,43.00
2017-12-16T02:43:12.391Z,41.30
2017-12-16T02:44:12.404Z,42.60
2017-12-16T02:45:12.416Z,37.40
2017-12-16T02:46:12.427Z,39.90
2017-12-16T02:47:12.520Z,40.00
2017-12-16T02:48:12.449Z,40.10
2017-12-16T02:49:12.461Z,38.70
2017-12-16T02:50:12.474Z,39.00
2017-12-16T02:51:12.481Z,39.50
2017-12-16T02:52:12.495Z,41.80
2017-12-16T02:53:12.508Z,42.90
2017-12-16T02:54:12.519Z,36.90
2017-12-16T02:55:12.529Z,39.10
2017-12-16T02:56:12.542Z,39.30
2017-12-16T02:57:12.554Z,40.20
2017-12-16T02:58:12.564Z,39.10
2017-12-16T02:59:12.577Z,40.40
2017-12-16T03:00:12.588Z,36.90
2017-12-16T03:01:12.600Z,37.40
2017-12-16T03:02:12.611Z,36.40
2017-12-16T03:03:12.621Z,39.20
2017-12-16T03:04:12.637Z,42.20
2017-12-16T03:05:12.649Z,39.50
2017-12-16T03:06:12.659Z,39.20
2017-12-16T03:07:12.670Z,38.80
2017-12-16T03:08:12.685Z,42.90
2017-12-16T03:09:12.694Z,40.80
2017-12-16T03:10:12.757Z,38.30
2017-12-16T03:11:12.714Z,41.80
2017-12-16T03:12:12.727Z,38.60
2017-12-16T03:13:12.742Z,42.80
2017-12-16T03:14:12.751Z,38.80
2017-12-16T03:15:12.762Z,40.40
2017-12-16T03:16:12.782Z,39.20
2017-12-16T03:17:12.786Z,38.30
2017-12-16T03:18:12.798Z,40.10
2017-12-16T03:19:12.809Z,43.50
2017-12-16T03:20:12.825Z,40.90
2017-12-16T03:21:12.830Z,40.90
2017-12-16T03:22:12.844Z,42.50
2017-12-16T03:23:12.857Z,39.60
2017-12-16T03:24:12.870Z,40.60
2017-12-16T03:25:12.879Z,39.20
2017-12-16T03:26:12.890Z,43.40
2017-12-16T03:27:12.902Z,38.70
2017-12-16T03:28:12.911Z,38.60
2017-12-16T03:29:12.928Z,39.10
2017-12-16T03:30:13.010Z,40.30
2017-12-16T03:31:12.947Z,41.90
2017-12-16T03:32:12.962Z,38.80
2017-12-16T03:33:12.970Z,41.30
2017-12-16T03:34:12.982Z,41.70
2017-12-16T03:35:12.991Z,39.30
2017-12-16T03:36:13.036Z,43.20
2017-12-16T03:37:13.013Z,40.70
2017-12-16T03:38:13.027Z,39.30
2017-12-16T03:39:13.035Z,42.40
2017-12-16T03:40:13.050Z,40.60
2017-12-16T03:41:13.060Z,40.90
2017-12-16T03:42:13.068Z,38.20
2017-12-16T03:43:13.080Z,43.20
2017-12-16T03:44:13.093Z,44.50
2017-12-16T03:45:13.104Z,41.50
2017-12-16T03:46:13.115Z,41.80
2017-12-16T03:47:13.126Z,41.30
2017-12-16T03:48:13.137Z,46.00
2017-12-16T03:49:13.148Z,41.50
2017-12-16T03:50:13.158Z,43.50
2017-12-16T03:51:13.170Z,42.30
2017-12-16T03:52:13.181Z,43.30
2017-12-16T03:53:13.194Z,44.30
2017-12-16T03:54:13.204Z,44.70
2017-12-16T03:55:13.217Z,45.40
2017-12-16T03:56:13.227Z,44.30
2017-12-16T03:57:13.237Z,46.10
2017-12-16T03:58:13.249Z,43.60
2017-12-16T03:59:13.257Z,51.30
2017-12-16T04:00:13.271Z,52.20
2017-12-16T04:01:13.284Z,47.10
2017-12-16T04:02:13.297Z,47.60
2017-12-16T04:03:13.306Z,48.90
2017-12-16T04:04:13.315Z,51.10
2017-12-16T04:05:13.322Z,53.40
2017-12-16T04:06:13.333Z,51.30
2017-12-16T04:07:13.341Z,55.10
2017-12-16T04:08:13.352Z,57.60
2017-12-16T04:09:13.366Z,51.60
2017-12-16T04:10:13.374Z,52.20
2017-12-16T04:11:13.384Z,56.60
2017-12-16T04:12:13.396Z,48.70
2017-12-16T04:13:13.409Z,53.40
2017-12-16T04:14:13.421Z,57.00
2017-12-16T04:15:13.427Z,56.50
2017-12-16T04:16:13.440Z,55.80
2017-12-16T04:17:13.451Z,52.30
2017-12-16T04:18:13.461Z,58.40
2017-12-16T04:19:13.471Z,60.10
2017-12-16T04:20:13.483Z,56.90
2017-12-16T04:21:13.502Z,52.80
2017-12-16T04:22:13.509Z,56.50
2017-12-16T04:23:13.517Z,54.80
2017-12-16T04:24:13.540Z,60.10
2017-12-16T04:25:13.743Z,54.10
2017-12-16T04:26:13.552Z,53.60
2017-12-16T04:27:13.561Z,51.90
2017-12-16T04:28:13.573Z,51.20
2017-12-16T04:29:13.584Z,48.00
2017-12-16T04:30:13.594Z,52.80
2017-12-16T04:31:13.610Z,54.40
2017-12-16T04:32:13.620Z,53.00
2017-12-16T04:33:13.629Z,53.50
2017-12-16T04:34:13.641Z,51.70
2017-12-16T04:35:13.654Z,54.10
2017-12-16T04:36:13.666Z,55.30
2017-12-16T04:37:13.674Z,53.40
2017-12-16T04:38:13.684Z,51.50
2017-12-16T04:39:13.696Z,53.10
2017-12-16T04:40:13.710Z,51.60
2017-12-16T04:41:13.719Z,50.70
2017-12-16T04:42:13.731Z,54.70
2017-12-16T04:43:13.742Z,51.00
2017-12-16T04:44:13.762Z,54.00
2017-12-16T04:45:13.762Z,55.40
2017-12-16T04:46:13.775Z,49.60
2017-12-16T04:47:13.792Z,50.20
2017-12-16T04:48:13.797Z,50.90
2017-12-16T04:49:13.808Z,52.80
2017-12-16T04:50:13.820Z,53.50
2017-12-16T04:51:13.831Z,49.50
2017-12-16T04:52:13.841Z,50.30
2017-12-16T04:53:13.856Z,50.50
2017-12-16T04:54:13.865Z,51.50
2017-12-16T04:55:13.879Z,53.80
2017-12-16T04:56:13.887Z,48.70
2017-12-16T04:57:13.898Z,49.10
2017-12-16T04:58:13.907Z,48.40
2017-12-16T04:59:13.920Z,57.00
2017-12-16T05:00:13.955Z,49.40
2017-12-16T05:01:13.941Z,52.80
2017-12-16T05:02:13.953Z,55.80
2017-12-16T05:03:13.963Z,59.40
2017-12-16T05:04:13.975Z,53.30
2017-12-16T05:05:13.987Z,52.60
2017-12-16T05:06:13.995Z,52.80
2017-12-16T05:07:14.009Z,54.30
2017-12-16T05:08:14.019Z,61.20
2017-12-16T05:09:14.030Z,57.40
2017-12-16T05:10:14.042Z,54.90
2017-12-16T05:11:14.053Z,52.80
2017-12-16T05:12:14.064Z,51.50
2017-12-16T05:13:14.079Z,52.80
2017-12-16T05:14:14.086Z,50.50
2017-12-16T05:15:14.097Z,56.60
2017-12-16T05:16:14.110Z,54.70
2017-12-16T05:17:14.119Z,58.50
2017-12-16T05:18:14.134Z,55.90
2017-12-16T05:19:14.143Z,57.60
2017-12-16T05:20:14.153Z,54.70
2017-12-16T05:21:14.164Z,60.70
2017-12-16T05:22:14.177Z,56.20
2017-12-16T05:23:14.186Z,53.50
2017-12-16T05:24:14.198Z,61.00
2017-12-16T05:25:14.210Z,58.70
2017-12-16T05:26:14.223Z,60.80
2017-12-16T05:27:14.230Z,57.90
2017-12-16T05:28:14.243Z,55.00
2017-12-16T05:29:14.254Z,55.70
2017-12-16T05:30:14.267Z,55.90
2017-12-16T05:31:14.275Z,52.90
2017-12-16T05:32:14.288Z,54.00
2017-12-16T05:33:14.306Z,54.50
2017-12-16T05:34:14.309Z,54.50
2017-12-16T05:35:14.319Z,60.10
2017-12-16T05:36:14.331Z,57.10
2017-12-16T05:37:14.342Z,53.80
2017-12-16T05:38:14.354Z,52.60
2017-12-16T05:39:14.365Z,57.90
2017-12-16T05:40:14.375Z,59.20
2017-12-16T05:41:14.387Z,54.00
2017-12-16T05:42:14.398Z,52.60
2017-12-16T05:43:14.412Z,53.50
2017-12-16T05:44:14.420Z,50.00
2017-12-16T05:45:14.430Z,55.20
2017-12-16T05:46:14.442Z,53.70
2017-12-16T05:47:14.455Z,51.50
2017-12-16T05:48:14.467Z,51.40
2017-12-16T05:49:14.479Z,53.80
2017-12-16T05:50:14.485Z,54.80
2017-12-16T05:51:14.496Z,51.40
2017-12-16T05:52:14.508Z,54.70
2017-12-16T05:53:14.520Z,54.70
2017-12-16T05:54:14.529Z,53.10
2017-12-16T05:55:14.539Z,55.40
2017-12-16T05:56:14.551Z,58.80
2017-12-16T05:57:14.563Z,58.50
2017-12-16T05:58:14.577Z,53.40
2017-12-16T05:59:14.585Z,56.00
2017-12-16T06:00:14.598Z,54.00
2017-12-16T06:01:14.608Z,54.20
2017-12-16T06:02:14.769Z,58.10
2017-12-16T06:03:14.631Z,56.80
2017-12-16T06:04:14.640Z,56.10
2017-12-16T06:05:14.650Z,59.30
2017-12-16T06:06:14.666Z,59.00
2017-12-16T06:07:14.673Z,58.10
2017-12-16T06:08:14.693Z,57.10
2017-12-16T06:09:14.695Z,56.30
2017-12-16T06:10:14.706Z,54.70
2017-12-16T06:11:14.717Z,53.30
2017-12-16T06:12:14.878Z,59.40
2017-12-16T06:13:14.745Z,62.10
2017-12-16T06:14:14.750Z,54.70
2017-12-16T06:15:14.760Z,61.90
2017-12-16T06:16:14.773Z,57.80
2017-12-16T06:17:14.783Z,58.80
2017-12-16T06:18:14.796Z,62.10
2017-12-16T06:19:14.809Z,58.40
2017-12-16T06:20:14.971Z,63.50
2017-12-16T06:21:14.829Z,61.80
2017-12-16T06:22:14.840Z,63.60
2017-12-16T06:23:14.849Z,64.80
2017-12-16T06:24:14.863Z,65.90
2017-12-16T06:25:14.929Z,62.20
2017-12-16T06:26:14.884Z,62.40
2017-12-16T06:27:14.900Z,62.80
2017-12-16T06:28:14.906Z,61.60
2017-12-16T06:29:15.088Z,57.90
2017-12-16T06:30:14.928Z,62.00
2017-12-16T06:31:15.088Z,60.90
2017-12-16T06:32:14.949Z,63.30
2017-12-16T06:33:14.960Z,61.40
2017-12-16T06:34:14.973Z,66.90
2017-12-16T06:35:14.983Z,70.10
2017-12-16T06:36:14.994Z,69.10
2017-12-16T06:37:15.004Z,73.10
2017-12-16T06:38:15.016Z,69.60
2017-12-16T06:39:15.027Z,73.40
2017-12-16T06:40:15.038Z,77.10
2017-12-16T06:41:15.150Z,76.70
2017-12-16T06:42:15.062Z,78.30
2017-12-16T06:43:15.072Z,77.80
2017-12-16T06:44:15.084Z,76.90
2017-12-16T06:45:15.095Z,77.90
2017-12-16T06:46:15.106Z,74.20
2017-12-16T06:47:15.121Z,70.00
2017-12-16T06:48:15.126Z,78.00
2017-12-16T06:49:15.140Z,67.70
2017-12-16T06:50:15.149Z,72.40
2017-12-16T06:51:15.160Z,72.30
2017-12-16T06:52:15.178Z,72.30
2017-12-16T06:53:15.183Z,71.10
2017-12-16T06:54:15.194Z,68.10
2017-12-16T06:55:15.204Z,71.80
2017-12-16T06:56:15.217Z,75.10
2017-12-16T06:57:15.227Z,75.00
2017-12-16T06:58:15.242Z,72.30
2017-12-16T06:59:15.251Z,72.50
2017-12-16T07:00:15.260Z,72.00
2017-12-16T07:01:15.270Z,73.50
2017-12-16T07:02:15.287Z,76.80
2017-12-16T07:03:15.294Z,74.20
2017-12-16T07:04:15.313Z,70.40
2017-12-16T07:05:15.317Z,70.40
2017-12-16T07:06:15.329Z,75.20
2017-12-16T07:07:15.339Z,68.30
2017-12-16T07:08:15.350Z,72.10
2017-12-16T07:09:15.360Z,69.30
2017-12-16T07:10:15.372Z,69.80
2017-12-16T07:11:15.382Z,69.40
2017-12-16T07:12:15.393Z,70.10
2017-12-16T07:13:15.405Z,74.80
2017-12-16T07:14:15.417Z,72.70
2017-12-16T07:15:15.427Z,71.40
2017-12-16T07:16:15.440Z,79.10
2017-12-16T07:17:15.448Z,79.30
2017-12-16T07:18:15.458Z,74.10
2017-12-16T07:19:15.470Z,78.10
2017-12-16T07:20:15.488Z,76.60
2017-12-16T07:21:15.493Z,69.20
2017-12-16T07:22:15.508Z,76.90
2017-12-16T07:23:15.528Z,71.80
2017-12-16T07:24:15.534Z,71.90
2017-12-16T07:25:15.538Z,67.30
2017-12-16T07:26:15.559Z,73.30
2017-12-16T07:27:15.560Z,67.00
2017-12-16T07:28:15.572Z,65.00
2017-12-16T07:29:15.582Z,67.50
2017-12-16T07:30:15.599Z,70.80
2017-12-16T07:31:15.605Z,66.60
2017-12-16T07:32:15.625Z,66.50
2017-12-16T07:33:15.626Z,68.80
2017-12-16T07:34:15.645Z,67.20
2017-12-16T07:35:15.655Z,66.20
2017-12-16T07:36:15.660Z,68.10
2017-12-16T07:37:15.682Z,68.60
2017-12-16T07:38:15.685Z,65.30
2017-12-16T07:39:15.693Z,63.50
2017-12-16T07:40:15.705Z,66.30
2017-12-16T07:41:15.719Z,63.60
2017-12-16T07:42:15.729Z,63.30
2017-12-16T07:43:15.737Z,61.40
2017-12-16T07:44:15.752Z,59.70
2017-12-16T07:45:15.762Z,58.30
2017-12-16T07:46:15.773Z,62.10
2017-12-16T07:47:15.785Z,60.90
2017-12-16T07:48:15.797Z,60.90
2017-12-16T07:49:15.809Z,62.30
2017-12-16T07:50:15.817Z,60.30
2017-12-16T07:51:15.826Z,62.20
2017-12-16T07:52:15.840Z,63.70
2017-12-16T07:53:15.848Z,61.20
2017-12-16T07:54:15.873Z,58.90
2017-12-16T07:55:15.869Z,59.70
2017-12-16T07:56:15.881Z,56.80
2017-12-16T07:57:15.891Z,59.00
2017-12-16T07:58:15.914Z,57.20
2017-12-16T07:59:15.914Z,60.30
2017-12-16T08:00:15.924Z,55.40
2017-12-16T08:01:15.937Z,61.00
2017-12-16T08:02:15.946Z,57.10
2017-12-16T08:03:15.968Z,54.40
2017-12-16T08:04:15.968Z,55.00
2017-12-16T08:05:15.979Z,51.90
2017-12-16T08:06:15.992Z,53.80
2017-12-16T08:07:16.002Z,52.40
2017-12-16T08:08:16.031Z,55.90
2017-12-16T08:09:16.029Z,52.60
2017-12-16T08:10:16.036Z,51.40
2017-12-16T08:11:16.047Z,50.40
2017-12-16T08:12:16.058Z,50.50
2017-12-16T08:13:16.069Z,50.30
2017-12-16T08:14:16.080Z,47.90
2017-12-16T08:15:16.097Z,50.30
2017-12-16T08:16:16.102Z,50.40
2017-12-16T08:17:16.114Z,46.10
2017-12-16T08:18:16.132Z,47.20
2017-12-16T08:19:16.135Z,50.30
2017-12-16T08:20:16.204Z,55.50
2017-12-16T08:21:16.159Z,51.20
2017-12-16T08:22:16.170Z,52.50
2017-12-16T08:23:16.187Z,54.80
2017-12-16T08:24:16.193Z,43.00
2017-12-16T08:25:16.207Z,44.80
2017-12-16T08:26:16.222Z,46.30
2017-12-16T08:27:16.224Z,45.80
2017-12-16T08:28:16.242Z,50.00
2017-12-16T08:29:16.246Z,47.30
2017-12-16T08:30:16.259Z,45.90
2017-12-16T08:31:16.270Z,44.70
2017-12-16T08:32:16.283Z,49.50
2017-12-16T08:33:16.293Z,44.20
2017-12-16T08:34:16.310Z,40.30
2017-12-16T08:35:16.313Z,40.60
2017-12-16T08:36:16.327Z,41.90
2017-12-16T08:37:16.350Z,39.50
2017-12-16T08:38:16.355Z,40.80
2017-12-16T08:39:16.359Z,42.00
2017-12-16T08:40:16.397Z,37.90
2017-12-16T08:41:16.385Z,40.60
2017-12-16T08:42:16.399Z,41.50
2017-12-16T08:43:16.406Z,42.10
2017-12-16T08:44:16.423Z,38.70
2017-12-16T08:45:16.429Z,39.30
2017-12-16T08:46:16.439Z,38.90
2017-12-16T08:47:16.450Z,41.40
2017-12-16T08:48:16.467Z,39.60
2017-12-16T08:49:16.474Z,35.80
2017-12-16T08:50:16.486Z,38.90
2017-12-16T08:51:16.501Z,39.50
2017-12-16T08:52:16.517Z,37.50
2017-12-16T08:53:16.521Z,38.70
2017-12-16T08:54:16.537Z,37.40
2017-12-16T08:55:16.544Z,40.70
2017-12-16T08:56:16.558Z,36.00
2017-12-16T08:57:16.565Z,36.80
2017-12-16T08:58:16.582Z,39.20
2017-12-16T08:59:16.590Z,33.00
2017-12-16T09:00:16.607Z,34.50
2017-12-16T09:01:16.608Z,33.80
2017-12-16T09:02:16.628Z,32.00
2017-12-16T09:03:16.631Z,32.80
2017-12-16T09:04:16.648Z,31.50
2017-12-16T09:05:16.663Z,31.80
2017-12-16T09:06:16.676Z,31.20
2017-12-16T09:07:16.680Z,28.80
2017-12-16T09:08:16.695Z,26.50
2017-12-16T09:09:16.705Z,29.00
2017-12-16T09:10:16.717Z,30.60
2017-12-16T09:11:16.721Z,30.20
2017-12-16T09:12:16.740Z,28.30
2017-12-16T09:13:16.746Z,26.40
2017-12-16T09:14:16.762Z,29.50
2017-12-16T09:15:16.768Z,30.10
2017-12-16T09:16:16.786Z,26.60
2017-12-16T09:17:16.790Z,28.40
2017-12-16T09:18:16.807Z,29.60
2017-12-16T09:19:16.813Z,28.40
2017-12-16T09:20:16.828Z,23.90
2017-12-16T09:21:16.841Z,26.30
2017-12-16T09:22:16.849Z,24.50
2017-12-16T09:23:16.858Z,27.90
2017-12-16T09:24:16.874Z,22.90
2017-12-16T09:25:16.879Z,26.00
2017-12-16T09:26:16.897Z,22.40
2017-12-16T09:27:16.904Z,26.60
2017-12-16T09:28:16.920Z,27.80
2017-12-16T09:29:16.927Z,24.20
2017-12-16T09:30:16.941Z,24.30
2017-12-16T09:31:16.947Z,27.30
2017-12-16T09:32:16.967Z,21.80
2017-12-16T09:33:16.974Z,25.80
2017-12-16T09:34:16.989Z,23.10
2017-12-16T09:35:17.055Z,25.90
2017-12-16T09:36:17.004Z,26.20
2017-12-16T09:37:17.037Z,23.00
2017-12-16T09:38:17.033Z,23.40
2017-12-16T09:39:17.041Z,23.10
2017-12-16T09:40:17.053Z,23.20
2017-12-16T09:41:17.062Z,25.60
2017-12-16T09:42:17.088Z,23.00
2017-12-16T09:43:17.084Z,22.90
2017-12-16T09:44:17.100Z,19.30
2017-12-16T09:45:17.109Z,23.30
2017-12-16T09:46:17.120Z,20.80
2017-12-16T09:47:17.130Z,21.10
2017-12-16T09:48:17.145Z,22.60
2017-12-16T09:49:17.156Z,21.20
2017-12-16T09:50:17.173Z,23.20
2017-12-16T09:51:17.179Z,21.70
2017-12-16T09:52:17.189Z,22.00
2017-12-16T09:53:17.201Z,20.90
2017-12-16T09:54:17.216Z,24.80
2017-12-16T09:55:17.220Z,21.00
2017-12-16T09:56:17.234Z,18.80
2017-12-16T09:57:17.245Z,22.70
2017-12-16T09:58:17.257Z,18.80
2017-12-16T09:59:17.274Z,15.70
2017-12-16T10:00:17.287Z,20.40
2017-12-16T10:01:17.295Z,17.20
2017-12-16T10:02:17.309Z,19.20
2017-12-16T10:03:17.317Z,19.50
2017-12-16T10:04:17.341Z,20.70
2017-12-16T10:05:17.342Z,17.70
2017-12-16T10:06:17.350Z,16.90
2017-12-16T10:07:17.361Z,16.60
2017-12-16T10:08:17.375Z,19.60
2017-12-16T10:09:17.387Z,20.70
2017-12-16T10:10:17.398Z,19.10
2017-12-16T10:11:17.412Z,18.30
2017-12-16T10:12:17.422Z,19.70
2017-12-16T10:13:17.440Z,24.10
2017-12-16T10:14:17.449Z,17.60
2017-12-16T10:15:17.456Z,16.70
2017-12-16T10:16:17.472Z,16.50
2017-12-16T10:17:17.489Z,17.90
2017-12-16T10:18:17.503Z,18.70
2017-12-16T10:19:17.504Z,15.50
2017-12-16T10:20:17.517Z,17.10
2017-12-16T10:21:17.532Z,17.10
2017-12-16T10:22:17.644Z,16.40
2017-12-16T10:23:17.550Z,16.30
2017-12-16T10:24:17.565Z,16.30
2017-12-16T10:25:17.578Z,16.00
2017-12-16T10:26:17.592Z,15.70
2017-12-16T10:27:17.600Z,15.50
2017-12-16T10:28:17.611Z,20.30
2017-12-16T10:29:17.622Z,16.70
2017-12-16T10:30:17.684Z,15.40
2017-12-16T10:31:17.647Z,14.40
2017-12-16T10:32:17.659Z,15.50
2017-12-16T10:33:17.672Z,14.50
2017-12-16T10:34:17.688Z,14.10
2017-12-16T10:35:17.697Z,15.00
2017-12-16T10:36:17.705Z,15.20
2017-12-16T10:37:17.738Z,12.90
2017-12-16T10:38:17.733Z,14.30
2017-12-16T10:39:17.745Z,12.30
2017-12-16T10:40:17.757Z,15.40
2017-12-16T10:41:17.767Z,16.00
2017-12-16T10:42:17.779Z,13.60
2017-12-16T10:43:17.793Z,10.70
2017-12-16T10:44:17.805Z,14.70
2017-12-16T10:45:17.819Z,12.20
2017-12-16T10:46:17.828Z,12.70
2017-12-16T10:47:17.838Z,10.00
2017-12-16T10:48:17.848Z,14.80
2017-12-16T10:49:17.864Z,14.60
2017-12-16T10:50:17.885Z,13.50
2017-12-16T10:51:17.888Z,15.60
2017-12-16T10:52:17.901Z,12.50
2017-12-16T10:53:17.915Z,12.70
2017-12-16T10:54:17.923Z,12.70
2017-12-16T10:55:17.985Z,16.10
2017-12-16T10:56:17.949Z,11.00
2017-12-16T10:57:17.960Z,12.20
2017-12-16T10:58:17.974Z,15.00
2017-12-16T10:59:17.985Z,11.20
2017-12-16T11:00:17.996Z,11.40
2017-12-16T11:01:18.009Z,11.10
2017-12-16T11:02:18.020Z,11.60
2017-12-16T11:03:18.033Z,11.60
2017-12-16T11:04:18.042Z,11.60
2017-12-16T11:05:18.056Z,11.00
2017-12-16T11:06:18.072Z,9.90
2017-12-16T11:07:18.084Z,10.80
2017-12-16T11:08:18.094Z,11.00
2017-12-16T11:09:18.102Z,9.40
2017-12-16T11:10:18.116Z,10.60
2017-12-16T11:11:18.127Z,13.10
2017-12-16T11:12:18.141Z,9.00
2017-12-16T11:13:18.156Z,11.60
2017-12-16T11:14:18.166Z,13.10
2017-12-16T11:15:18.177Z,13.20
2017-12-16T11:16:18.187Z,15.20
2017-12-16T11:17:18.204Z,9.00
2017-12-16T11:18:18.213Z,12.60
2017-12-16T11:19:18.224Z,10.10
2017-12-16T11:20:18.235Z,12.10
2017-12-16T11:21:18.246Z,13.10
2017-12-16T11:22:18.260Z,10.10
2017-12-16T11:23:18.272Z,10.40
2017-12-16T11:24:18.287Z,10.80
2017-12-16T11:25:18.297Z,8.60
2017-12-16T11:26:18.308Z,14.30
2017-12-16T11:27:18.324Z,13.40
2017-12-16T11:28:18.332Z,9.00
2017-12-16T11:29:18.343Z,11.10
2017-12-16T11:30:18.358Z,10.60
2017-12-16T11:31:18.370Z,8.10
2017-12-16T11:32:18.382Z,10.20
2017-12-16T11:33:18.393Z,8.90
2017-12-16T11:34:18.406Z,7.90
2017-12-16T11:35:18.421Z,10.20
2017-12-16T11:36:18.428Z,15.40
2017-12-16T11:37:18.445Z,11.40
2017-12-16T11:38:18.453Z,10.50
2017-12-16T11:39:18.465Z,9.90
2017-12-16T11:40:18.474Z,10.00
2017-12-16T11:41:19.093Z,9.90
2017-12-16T11:42:18.497Z,8.60
2017-12-16T11:43:18.507Z,11.50
2017-12-16T11:44:18.519Z,7.80
2017-12-16T11:45:18.531Z,8.80
2017-12-16T11:46:18.544Z,8.20
2017-12-16T11:47:18.554Z,9.50
2017-12-16T11:48:18.579Z,8.50
2017-12-16T11:49:18.581Z,8.80
2017-12-16T11:50:18.595Z,8.50
2017-12-16T11:51:18.604Z,8.90
2017-12-16T11:52:18.617Z,8.10
2017-12-16T11:53:18.629Z,9.90
2017-12-16T11:54:19.466Z,6.80
2017-12-16T11:55:18.654Z,5.90
2017-12-16T11:56:18.666Z,9.80
2017-12-16T11:57:18.681Z,6.80
2017-12-16T11:58:18.688Z,8.80
2017-12-16T11:59:18.705Z,8.90
2017-12-16T12:00:18.714Z,8.40
2017-12-16T12:01:18.725Z,7.80
2017-12-16T12:02:18.742Z,6.20
2017-12-16T12:03:18.751Z,5.30
2017-12-16T12:04:18.766Z,8.40
2017-12-16T12:05:18.775Z,8.40
2017-12-16T12:06:18.789Z,9.60
2017-12-16T12:07:18.804Z,10.40
2017-12-16T12:08:18.812Z,8.10
2017-12-16T12:09:18.825Z,9.00
2017-12-16T12:10:18.843Z,8.20
2017-12-16T12:11:18.852Z,7.00
2017-12-16T12:12:18.862Z,11.60
2017-12-16T12:13:18.876Z,9.80
2017-12-16T12:14:18.888Z,10.50
2017-12-16T12:15:18.900Z,9.60
2017-12-16T12:16:18.911Z,9.00
2017-12-16T12:17:18.928Z,8.70
2017-12-16T12:18:18.936Z,9.20
2017-12-16T12:19:18.951Z,10.60
2017-12-16T12:20:18.960Z,7.60
2017-12-16T12:21:18.975Z,9.50
2017-12-16T12:22:18.987Z,7.90
2017-12-16T12:23:19.003Z,10.40
2017-12-16T12:24:19.010Z,8.70
2017-12-16T12:25:19.023Z,12.40
2017-12-16T12:26:19.035Z,13.50
2017-12-16T12:27:19.047Z,8.70
2017-12-16T12:28:19.060Z,8.20
2017-12-16T12:29:19.072Z,8.70
2017-12-16T12:30:19.086Z,10.20
2017-12-16T12:31:19.105Z,7.50
2017-12-16T12:32:19.115Z,10.80
2017-12-16T12:33:19.125Z,11.20
2017-12-16T12:34:19.136Z,11.90
2017-12-16T12:35:19.147Z,11.80
2017-12-16T12:36:19.158Z,11.50
2017-12-16T12:37:19.175Z,10.70
2017-12-16T12:38:19.184Z,9.70
2017-12-16T12:39:19.198Z,7.50
2017-12-16T12:40:19.210Z,13.10
2017-12-16T12:41:19.221Z,7.60
2017-12-16T12:42:19.234Z,10.80
2017-12-16T12:43:19.268Z,9.50
2017-12-16T12:44:19.263Z,9.50
2017-12-16T12:45:19.270Z,7.30
2017-12-16T12:46:19.285Z,9.70
2017-12-16T12:47:19.295Z,8.10
2017-12-16T12:48:19.308Z,9.10
2017-12-16T12:49:19.328Z,7.50
2017-12-16T12:50:19.333Z,10.90
2017-12-16T12:51:19.342Z,7.70
2017-12-16T12:52:19.358Z,10.20
2017-12-16T12:53:19.368Z,10.70
2017-12-16T12:54:19.381Z,10.60
2017-12-16T12:55:19.395Z,8.70